sensor_id;sensor_type;location;lat;lon;timestamp;temperature;humidity
19538;DHT22;9914;51.008;4.300;2023-05-07T00:01:41;18.10;99.90
19538;DHT22;9914;51.008;4.300;2023-05-07T00:04:07;18.20;99.90
19538;DHT22;9914;51.008;4.300;2023-05-07T00:06:33;18.10;99.90
19538;DHT22;9914;51.008;4.300;2023-05-07T00:08:59;18.10;99.90
19538;DHT22;9914;51.008;4.300;2023-05-07T00:11:25;18.00;99.90
19538;DHT22;9914;51.008;4.300;2023-05-07T00:13:51;17.90;99.90
19538;DHT22;9914;51.008;4.300;2023-05-07T00:16:17;17.80;99.90
19538;DHT22;9914;51.008;4.300;2023-05-07T00:18:42;17.80;99.90
19538;DHT22;9914;51.008;4.300;2023-05-07T00:21:08;17.80;99.90
19538;DHT22;9914;51.008;4.300;2023-05-07T00:23:34;18.00;99.90
19538;DHT22;9914;51.008;4.300;2023-05-07T00:25:59;18.10;99.90
19538;DHT22;9914;51.008;4.300;2023-05-07T00:28:25;18.10;99.90
19538;DHT22;9914;51.008;4.300;2023-05-07T00:30:51;18.10;99.90
19538;DHT22;9914;51.008;4.300;2023-05-07T00:33:16;18.00;99.90
19538;DHT22;9914;51.008;4.300;2023-05-07T00:35:42;17.90;99.90
19538;DHT22;9914;51.008;4.300;2023-05-07T00:38:08;17.70;99.90
19538;DHT22;9914;51.008;4.300;2023-05-07T00:40:33;17.80;99.90
19538;DHT22;9914;51.008;4.300;2023-05-07T00:42:59;17.70;99.90
19538;DHT22;9914;51.008;4.300;2023-05-07T00:45:28;17.80;99.90
19538;DHT22;9914;51.008;4.300;2023-05-07T00:47:55;17.70;99.90
19538;DHT22;9914;51.008;4.300;2023-05-07T00:50:23;17.60;99.90
19538;DHT22;9914;51.008;4.300;2023-05-07T00:52:49;17.60;99.90
19538;DHT22;9914;51.008;4.300;2023-05-07T00:55:14;17.60;99.90
19538;DHT22;9914;51.008;4.300;2023-05-07T00:57:41;17.50;99.90
19538;DHT22;9914;51.008;4.300;2023-05-07T01:00:08;17.50;99.90
19538;DHT22;9914;51.008;4.300;2023-05-07T01:02:38;17.40;99.90
19538;DHT22;9914;51.008;4.300;2023-05-07T01:05:05;17.50;99.90
19538;DHT22;9914;51.008;4.300;2023-05-07T01:07:32;17.40;99.90
19538;DHT22;9914;51.008;4.300;2023-05-07T01:09:58;17.30;99.90
19538;DHT22;9914;51.008;4.300;2023-05-07T01:12:25;17.30;99.90
19538;DHT22;9914;51.008;4.300;2023-05-07T01:14:51;17.30;99.90
19538;DHT22;9914;51.008;4.300;2023-05-07T01:17:17;17.10;99.90
19538;DHT22;9914;51.008;4.300;2023-05-07T01:19:43;17.00;99.90
19538;DHT22;9914;51.008;4.300;2023-05-07T01:22:10;16.90;99.90
19538;DHT22;9914;51.008;4.300;2023-05-07T01:24:40;16.90;99.90
19538;DHT22;9914;51.008;4.300;2023-05-07T01:27:06;17.00;99.90
19538;DHT22;9914;51.008;4.300;2023-05-07T01:29:32;17.00;99.90
19538;DHT22;9914;51.008;4.300;2023-05-07T01:31:59;17.00;99.90
19538;DHT22;9914;51.008;4.300;2023-05-07T01:34:26;17.00;99.90
19538;DHT22;9914;51.008;4.300;2023-05-07T01:36:54;17.00;99.90
19538;DHT22;9914;51.008;4.300;2023-05-07T01:39:23;17.00;99.90
19538;DHT22;9914;51.008;4.300;2023-05-07T01:41:50;17.00;99.90
19538;DHT22;9914;51.008;4.300;2023-05-07T01:44:16;16.90;99.90
19538;DHT22;9914;51.008;4.300;2023-05-07T01:46:43;16.90;99.90
19538;DHT22;9914;51.008;4.300;2023-05-07T01:49:09;16.80;99.90
19538;DHT22;9914;51.008;4.300;2023-05-07T01:51:35;16.80;99.90
19538;DHT22;9914;51.008;4.300;2023-05-07T01:54:01;16.70;99.90
19538;DHT22;9914;51.008;4.300;2023-05-07T01:56:27;16.70;99.90
19538;DHT22;9914;51.008;4.300;2023-05-07T01:58:52;16.60;99.90
19538;DHT22;9914;51.008;4.300;2023-05-07T02:01:18;16.60;99.90
19538;DHT22;9914;51.008;4.300;2023-05-07T02:03:44;16.50;99.90
19538;DHT22;9914;51.008;4.300;2023-05-07T02:06:10;16.60;99.90
19538;DHT22;9914;51.008;4.300;2023-05-07T02:08:35;16.70;99.90
19538;DHT22;9914;51.008;4.300;2023-05-07T02:11:01;16.70;99.90
19538;DHT22;9914;51.008;4.300;2023-05-07T02:13:30;16.60;99.90
19538;DHT22;9914;51.008;4.300;2023-05-07T02:15:56;16.50;99.90
19538;DHT22;9914;51.008;4.300;2023-05-07T02:18:21;16.40;99.90
19538;DHT22;9914;51.008;4.300;2023-05-07T02:20:47;16.40;99.90
19538;DHT22;9914;51.008;4.300;2023-05-07T02:23:12;16.50;99.90
19538;DHT22;9914;51.008;4.300;2023-05-07T02:25:38;16.50;99.90
19538;DHT22;9914;51.008;4.300;2023-05-07T02:28:04;16.50;99.90
19538;DHT22;9914;51.008;4.300;2023-05-07T02:30:29;16.60;99.90
19538;DHT22;9914;51.008;4.300;2023-05-07T02:32:55;16.70;99.90
19538;DHT22;9914;51.008;4.300;2023-05-07T02:35:20;16.40;99.90
19538;DHT22;9914;51.008;4.300;2023-05-07T02:37:46;16.40;99.90
19538;DHT22;9914;51.008;4.300;2023-05-07T02:40:12;16.40;99.90
19538;DHT22;9914;51.008;4.300;2023-05-07T02:42:38;16.40;99.90
19538;DHT22;9914;51.008;4.300;2023-05-07T02:45:04;16.20;99.90
19538;DHT22;9914;51.008;4.300;2023-05-07T02:47:29;16.20;99.90
19538;DHT22;9914;51.008;4.300;2023-05-07T02:49:55;16.20;99.90
19538;DHT22;9914;51.008;4.300;2023-05-07T02:52:21;16.20;99.90
19538;DHT22;9914;51.008;4.300;2023-05-07T02:54:47;16.20;99.90
19538;DHT22;9914;51.008;4.300;2023-05-07T02:57:13;16.30;99.90
19538;DHT22;9914;51.008;4.300;2023-05-07T02:59:39;16.30;99.90
19538;DHT22;9914;51.008;4.300;2023-05-07T03:02:04;16.40;99.90
19538;DHT22;9914;51.008;4.300;2023-05-07T03:04:30;16.50;99.90
19538;DHT22;9914;51.008;4.300;2023-05-07T03:06:56;16.70;99.90
19538;DHT22;9914;51.008;4.300;2023-05-07T03:09:22;16.70;99.90
19538;DHT22;9914;51.008;4.300;2023-05-07T03:11:47;16.70;99.90
19538;DHT22;9914;51.008;4.300;2023-05-07T03:14:13;16.60;99.90
19538;DHT22;9914;51.008;4.300;2023-05-07T03:16:39;16.60;99.90
19538;DHT22;9914;51.008;4.300;2023-05-07T03:19:04;16.50;99.90
19538;DHT22;9914;51.008;4.300;2023-05-07T03:21:30;16.50;99.90
19538;DHT22;9914;51.008;4.300;2023-05-07T03:23:59;16.50;99.90
19538;DHT22;9914;51.008;4.300;2023-05-07T03:26:24;16.70;99.90
19538;DHT22;9914;51.008;4.300;2023-05-07T03:28:51;16.70;99.90
19538;DHT22;9914;51.008;4.300;2023-05-07T03:31:17;16.50;99.90
19538;DHT22;9914;51.008;4.300;2023-05-07T03:33:53;16.50;99.90
19538;DHT22;9914;51.008;4.300;2023-05-07T03:36:19;16.50;99.90
19538;DHT22;9914;51.008;4.300;2023-05-07T03:38:44;16.40;99.90
19538;DHT22;9914;51.008;4.300;2023-05-07T03:41:10;16.40;99.90
19538;DHT22;9914;51.008;4.300;2023-05-07T03:43:35;16.50;99.90
19538;DHT22;9914;51.008;4.300;2023-05-07T03:46:01;16.50;99.90
19538;DHT22;9914;51.008;4.300;2023-05-07T03:48:27;16.50;99.90
19538;DHT22;9914;51.008;4.300;2023-05-07T03:50:52;16.40;99.90
19538;DHT22;9914;51.008;4.300;2023-05-07T03:53:18;16.50;99.90
19538;DHT22;9914;51.008;4.300;2023-05-07T03:55:44;16.50;99.90
19538;DHT22;9914;51.008;4.300;2023-05-07T03:58:09;16.50;99.90
19538;DHT22;9914;51.008;4.300;2023-05-07T04:00:35;16.50;99.90
19538;DHT22;9914;51.008;4.300;2023-05-07T04:03:04;16.60;99.90
19538;DHT22;9914;51.008;4.300;2023-05-07T04:05:30;16.60;99.90
19538;DHT22;9914;51.008;4.300;2023-05-07T04:07:58;16.70;99.90
19538;DHT22;9914;51.008;4.300;2023-05-07T04:10:24;16.70;99.90
19538;DHT22;9914;51.008;4.300;2023-05-07T04:12:49;16.80;99.90
19538;DHT22;9914;51.008;4.300;2023-05-07T04:15:15;16.70;99.90
19538;DHT22;9914;51.008;4.300;2023-05-07T04:17:41;16.90;99.90
19538;DHT22;9914;51.008;4.300;2023-05-07T04:20:09;16.70;99.90
19538;DHT22;9914;51.008;4.300;2023-05-07T04:22:36;16.80;99.90
19538;DHT22;9914;51.008;4.300;2023-05-07T04:25:02;16.70;99.90
19538;DHT22;9914;51.008;4.300;2023-05-07T04:27:28;16.80;99.90
19538;DHT22;9914;51.008;4.300;2023-05-07T04:29:54;16.90;99.90
19538;DHT22;9914;51.008;4.300;2023-05-07T04:32:21;16.90;99.90
19538;DHT22;9914;51.008;4.300;2023-05-07T04:34:47;17.00;99.90
19538;DHT22;9914;51.008;4.300;2023-05-07T04:37:13;17.10;99.90
19538;DHT22;9914;51.008;4.300;2023-05-07T04:39:38;17.10;99.90
19538;DHT22;9914;51.008;4.300;2023-05-07T04:42:04;17.10;99.90
19538;DHT22;9914;51.008;4.300;2023-05-07T04:44:32;17.00;99.90
19538;DHT22;9914;51.008;4.300;2023-05-07T04:46:59;17.00;99.90
19538;DHT22;9914;51.008;4.300;2023-05-07T04:49:25;17.10;99.90
19538;DHT22;9914;51.008;4.300;2023-05-07T04:51:51;17.20;99.90
19538;DHT22;9914;51.008;4.300;2023-05-07T04:54:16;17.20;99.90
19538;DHT22;9914;51.008;4.300;2023-05-07T04:56:42;17.20;99.90
19538;DHT22;9914;51.008;4.300;2023-05-07T04:59:07;17.20;99.90
19538;DHT22;9914;51.008;4.300;2023-05-07T05:01:33;17.20;99.90
19538;DHT22;9914;51.008;4.300;2023-05-07T05:03:59;17.10;99.90
19538;DHT22;9914;51.008;4.300;2023-05-07T05:06:25;17.20;99.90
19538;DHT22;9914;51.008;4.300;2023-05-07T05:08:51;17.30;99.90
19538;DHT22;9914;51.008;4.300;2023-05-07T05:11:17;17.30;99.90
19538;DHT22;9914;51.008;4.300;2023-05-07T05:13:42;17.40;99.90
19538;DHT22;9914;51.008;4.300;2023-05-07T05:16:08;17.50;99.90
19538;DHT22;9914;51.008;4.300;2023-05-07T05:18:34;17.70;99.90
19538;DHT22;9914;51.008;4.300;2023-05-07T05:21:00;17.90;99.90
19538;DHT22;9914;51.008;4.300;2023-05-07T05:23:27;18.00;99.90
19538;DHT22;9914;51.008;4.300;2023-05-07T05:25:58;18.10;99.90
19538;DHT22;9914;51.008;4.300;2023-05-07T05:28:24;18.10;99.90
19538;DHT22;9914;51.008;4.300;2023-05-07T05:30:50;18.40;99.90
19538;DHT22;9914;51.008;4.300;2023-05-07T05:33:15;18.20;99.90
19538;DHT22;9914;51.008;4.300;2023-05-07T05:35:42;18.20;99.90
19538;DHT22;9914;51.008;4.300;2023-05-07T05:38:07;18.20;99.90
19538;DHT22;9914;51.008;4.300;2023-05-07T05:40:33;18.20;99.90
19538;DHT22;9914;51.008;4.300;2023-05-07T05:42:59;18.30;99.90
19538;DHT22;9914;51.008;4.300;2023-05-07T05:45:25;18.40;99.90
19538;DHT22;9914;51.008;4.300;2023-05-07T05:47:51;18.40;99.90
19538;DHT22;9914;51.008;4.300;2023-05-07T05:50:16;18.50;99.90
19538;DHT22;9914;51.008;4.300;2023-05-07T05:52:42;18.50;99.90
19538;DHT22;9914;51.008;4.300;2023-05-07T05:55:08;18.30;99.90
19538;DHT22;9914;51.008;4.300;2023-05-07T05:57:34;18.40;99.90
19538;DHT22;9914;51.008;4.300;2023-05-07T06:00:02;18.40;99.90
19538;DHT22;9914;51.008;4.300;2023-05-07T06:02:28;18.40;99.90
19538;DHT22;9914;51.008;4.300;2023-05-07T06:04:53;18.40;99.90
19538;DHT22;9914;51.008;4.300;2023-05-07T06:07:19;18.50;99.90
19538;DHT22;9914;51.008;4.300;2023-05-07T06:09:45;18.50;99.90
19538;DHT22;9914;51.008;4.300;2023-05-07T06:12:11;18.50;99.90
19538;DHT22;9914;51.008;4.300;2023-05-07T06:14:37;18.70;99.90
19538;DHT22;9914;51.008;4.300;2023-05-07T06:17:02;18.80;99.90
19538;DHT22;9914;51.008;4.300;2023-05-07T06:19:28;18.60;99.90
19538;DHT22;9914;51.008;4.300;2023-05-07T06:21:54;18.40;99.90
19538;DHT22;9914;51.008;4.300;2023-05-07T06:24:21;18.40;99.90
19538;DHT22;9914;51.008;4.300;2023-05-07T06:26:47;18.40;99.90
19538;DHT22;9914;51.008;4.300;2023-05-07T06:29:13;18.40;99.90
19538;DHT22;9914;51.008;4.300;2023-05-07T06:31:39;18.20;99.90
19538;DHT22;9914;51.008;4.300;2023-05-07T06:34:04;18.30;99.90
19538;DHT22;9914;51.008;4.300;2023-05-07T06:36:30;18.40;99.90
19538;DHT22;9914;51.008;4.300;2023-05-07T06:38:56;18.50;99.90
19538;DHT22;9914;51.008;4.300;2023-05-07T06:41:22;18.40;99.90
19538;DHT22;9914;51.008;4.300;2023-05-07T06:43:47;18.40;99.90
19538;DHT22;9914;51.008;4.300;2023-05-07T06:46:13;18.40;99.90
19538;DHT22;9914;51.008;4.300;2023-05-07T06:48:39;18.40;99.90
19538;DHT22;9914;51.008;4.300;2023-05-07T06:51:04;18.40;99.90
19538;DHT22;9914;51.008;4.300;2023-05-07T06:53:30;18.40;99.90
19538;DHT22;9914;51.008;4.300;2023-05-07T06:55:56;18.50;99.90
19538;DHT22;9914;51.008;4.300;2023-05-07T06:58:22;18.70;99.90
19538;DHT22;9914;51.008;4.300;2023-05-07T07:00:48;18.70;99.90
19538;DHT22;9914;51.008;4.300;2023-05-07T07:03:14;18.80;99.90
19538;DHT22;9914;51.008;4.300;2023-05-07T07:05:43;18.80;99.90
19538;DHT22;9914;51.008;4.300;2023-05-07T07:08:09;18.70;99.90
19538;DHT22;9914;51.008;4.300;2023-05-07T07:10:35;18.80;99.90
19538;DHT22;9914;51.008;4.300;2023-05-07T07:13:00;18.90;99.90
19538;DHT22;9914;51.008;4.300;2023-05-07T07:15:26;18.90;99.90
19538;DHT22;9914;51.008;4.300;2023-05-07T07:17:52;19.00;99.90
19538;DHT22;9914;51.008;4.300;2023-05-07T07:20:18;19.00;99.90
19538;DHT22;9914;51.008;4.300;2023-05-07T07:22:44;18.90;99.90
19538;DHT22;9914;51.008;4.300;2023-05-07T07:25:10;19.00;99.90
19538;DHT22;9914;51.008;4.300;2023-05-07T07:27:37;18.90;99.90
19538;DHT22;9914;51.008;4.300;2023-05-07T07:30:03;19.00;99.90
19538;DHT22;9914;51.008;4.300;2023-05-07T07:32:29;18.90;99.90
19538;DHT22;9914;51.008;4.300;2023-05-07T07:34:55;19.00;99.90
19538;DHT22;9914;51.008;4.300;2023-05-07T07:37:20;19.00;99.90
19538;DHT22;9914;51.008;4.300;2023-05-07T07:39:46;18.90;99.90
19538;DHT22;9914;51.008;4.300;2023-05-07T07:42:12;19.00;99.90
19538;DHT22;9914;51.008;4.300;2023-05-07T07:44:37;18.90;99.90
19538;DHT22;9914;51.008;4.300;2023-05-07T07:47:05;19.10;99.90
19538;DHT22;9914;51.008;4.300;2023-05-07T07:49:30;19.20;99.90
19538;DHT22;9914;51.008;4.300;2023-05-07T07:51:56;19.10;99.90
19538;DHT22;9914;51.008;4.300;2023-05-07T07:54:24;19.30;99.90
19538;DHT22;9914;51.008;4.300;2023-05-07T07:56:50;19.30;99.90
19538;DHT22;9914;51.008;4.300;2023-05-07T07:59:16;19.50;99.90
19538;DHT22;9914;51.008;4.300;2023-05-07T08:01:44;19.60;99.90
19538;DHT22;9914;51.008;4.300;2023-05-07T08:04:10;19.70;99.90
19538;DHT22;9914;51.008;4.300;2023-05-07T08:06:35;19.60;99.90
19538;DHT22;9914;51.008;4.300;2023-05-07T08:09:01;19.60;99.90
19538;DHT22;9914;51.008;4.300;2023-05-07T08:11:27;19.50;99.90
19538;DHT22;9914;51.008;4.300;2023-05-07T08:13:54;19.70;99.90
19538;DHT22;9914;51.008;4.300;2023-05-07T08:16:20;19.70;99.90
19538;DHT22;9914;51.008;4.300;2023-05-07T08:18:46;19.90;99.90
19538;DHT22;9914;51.008;4.300;2023-05-07T08:21:11;19.90;99.90
19538;DHT22;9914;51.008;4.300;2023-05-07T08:23:37;20.00;99.90
19538;DHT22;9914;51.008;4.300;2023-05-07T08:26:03;20.10;99.90
19538;DHT22;9914;51.008;4.300;2023-05-07T08:28:29;20.10;99.90
19538;DHT22;9914;51.008;4.300;2023-05-07T08:30:54;20.30;99.90
19538;DHT22;9914;51.008;4.300;2023-05-07T08:33:22;20.30;99.90
19538;DHT22;9914;51.008;4.300;2023-05-07T08:35:47;20.30;99.90
19538;DHT22;9914;51.008;4.300;2023-05-07T08:38:13;20.40;99.90
19538;DHT22;9914;51.008;4.300;2023-05-07T08:40:39;20.50;99.90
19538;DHT22;9914;51.008;4.300;2023-05-07T08:43:06;20.60;99.90
19538;DHT22;9914;51.008;4.300;2023-05-07T08:45:33;20.60;99.90
19538;DHT22;9914;51.008;4.300;2023-05-07T08:48:01;20.70;99.90
19538;DHT22;9914;51.008;4.300;2023-05-07T08:50:28;20.60;99.90
19538;DHT22;9914;51.008;4.300;2023-05-07T08:52:55;20.50;99.90
19538;DHT22;9914;51.008;4.300;2023-05-07T08:55:22;20.40;99.90
19538;DHT22;9914;51.008;4.300;2023-05-07T08:57:49;20.50;99.90
19538;DHT22;9914;51.008;4.300;2023-05-07T09:00:15;20.50;99.90
19538;DHT22;9914;51.008;4.300;2023-05-07T09:02:41;20.60;99.90
19538;DHT22;9914;51.008;4.300;2023-05-07T09:05:07;20.60;99.90
19538;DHT22;9914;51.008;4.300;2023-05-07T09:07:34;20.60;99.90
19538;DHT22;9914;51.008;4.300;2023-05-07T09:10:04;20.70;99.90
19538;DHT22;9914;51.008;4.300;2023-05-07T09:12:30;20.70;99.90
19538;DHT22;9914;51.008;4.300;2023-05-07T09:14:56;20.80;99.90
19538;DHT22;9914;51.008;4.300;2023-05-07T09:17:22;20.80;99.90
19538;DHT22;9914;51.008;4.300;2023-05-07T09:19:48;20.80;99.90
19538;DHT22;9914;51.008;4.300;2023-05-07T09:22:13;20.80;99.90
19538;DHT22;9914;51.008;4.300;2023-05-07T09:24:39;20.80;99.90
19538;DHT22;9914;51.008;4.300;2023-05-07T09:27:06;20.90;99.90
19538;DHT22;9914;51.008;4.300;2023-05-07T09:29:32;20.90;99.90
19538;DHT22;9914;51.008;4.300;2023-05-07T09:32:07;21.00;99.90
19538;DHT22;9914;51.008;4.300;2023-05-07T09:34:34;21.00;99.90
19538;DHT22;9914;51.008;4.300;2023-05-07T09:37:04;20.90;99.90
19538;DHT22;9914;51.008;4.300;2023-05-07T09:39:46;21.00;99.90
19538;DHT22;9914;51.008;4.300;2023-05-07T09:42:13;21.00;99.90
19538;DHT22;9914;51.008;4.300;2023-05-07T09:44:40;21.10;99.90
19538;DHT22;9914;51.008;4.300;2023-05-07T09:47:07;21.10;99.90
19538;DHT22;9914;51.008;4.300;2023-05-07T09:49:37;21.20;99.90
19538;DHT22;9914;51.008;4.300;2023-05-07T09:52:05;21.30;99.90
19538;DHT22;9914;51.008;4.300;2023-05-07T09:54:32;21.30;99.90
19538;DHT22;9914;51.008;4.300;2023-05-07T09:56:59;21.30;99.90
19538;DHT22;9914;51.008;4.300;2023-05-07T09:59:28;21.30;99.90
19538;DHT22;9914;51.008;4.300;2023-05-07T10:01:57;21.20;99.90
19538;DHT22;9914;51.008;4.300;2023-05-07T10:04:25;21.20;99.90
19538;DHT22;9914;51.008;4.300;2023-05-07T10:06:50;21.20;99.90
19538;DHT22;9914;51.008;4.300;2023-05-07T10:09:16;21.20;99.90
19538;DHT22;9914;51.008;4.300;2023-05-07T10:11:42;21.30;99.90
19538;DHT22;9914;51.008;4.300;2023-05-07T10:14:09;21.50;99.90
19538;DHT22;9914;51.008;4.300;2023-05-07T10:16:36;21.50;99.90
19538;DHT22;9914;51.008;4.300;2023-05-07T10:19:03;21.50;99.90
19538;DHT22;9914;51.008;4.300;2023-05-07T10:21:30;21.60;99.90
19538;DHT22;9914;51.008;4.300;2023-05-07T10:24:04;21.50;99.90
19538;DHT22;9914;51.008;4.300;2023-05-07T10:26:32;21.60;99.90
19538;DHT22;9914;51.008;4.300;2023-05-07T10:29:27;21.60;99.90
19538;DHT22;9914;51.008;4.300;2023-05-07T10:34:34;21.80;99.90
19538;DHT22;9914;51.008;4.300;2023-05-07T10:37:02;21.90;99.90
19538;DHT22;9914;51.008;4.300;2023-05-07T10:39:28;22.10;99.90
19538;DHT22;9914;51.008;4.300;2023-05-07T10:41:54;22.10;99.90
19538;DHT22;9914;51.008;4.300;2023-05-07T10:44:29;22.10;99.90
19538;DHT22;9914;51.008;4.300;2023-05-07T10:49:33;22.40;99.90
19538;DHT22;9914;51.008;4.300;2023-05-07T10:52:18;22.50;99.90
19538;DHT22;9914;51.008;4.300;2023-05-07T10:54:44;22.60;99.90
19538;DHT22;9914;51.008;4.300;2023-05-07T10:57:32;22.70;99.90
19538;DHT22;9914;51.008;4.300;2023-05-07T10:59:58;22.80;99.90
19538;DHT22;9914;51.008;4.300;2023-05-07T11:05:29;22.90;99.90
19538;DHT22;9914;51.008;4.300;2023-05-07T11:08:02;22.90;99.90
19538;DHT22;9914;51.008;4.300;2023-05-07T11:10:56;22.90;99.90
19538;DHT22;9914;51.008;4.300;2023-05-07T11:13:44;22.90;99.90
19538;DHT22;9914;51.008;4.300;2023-05-07T11:16:24;23.10;99.90
19538;DHT22;9914;51.008;4.300;2023-05-07T11:18:52;23.10;99.90
19538;DHT22;9914;51.008;4.300;2023-05-07T11:21:37;22.90;99.90
19538;DHT22;9914;51.008;4.300;2023-05-07T11:24:04;23.00;99.90
19538;DHT22;9914;51.008;4.300;2023-05-07T11:26:41;23.00;99.90
19538;DHT22;9914;51.008;4.300;2023-05-07T11:29:14;22.90;99.90
19538;DHT22;9914;51.008;4.300;2023-05-07T11:31:40;23.00;99.90
19538;DHT22;9914;51.008;4.300;2023-05-07T11:34:06;22.80;99.90
19538;DHT22;9914;51.008;4.300;2023-05-07T11:36:33;22.90;99.90
19538;DHT22;9914;51.008;4.300;2023-05-07T11:38:59;23.10;99.90
19538;DHT22;9914;51.008;4.300;2023-05-07T11:41:35;23.30;99.90
19538;DHT22;9914;51.008;4.300;2023-05-07T11:44:02;23.50;99.90
19538;DHT22;9914;51.008;4.300;2023-05-07T11:46:28;23.50;99.90
19538;DHT22;9914;51.008;4.300;2023-05-07T11:48:55;23.50;99.90
19538;DHT22;9914;51.008;4.300;2023-05-07T11:51:23;23.60;99.90
19538;DHT22;9914;51.008;4.300;2023-05-07T11:53:51;23.60;99.90
19538;DHT22;9914;51.008;4.300;2023-05-07T11:56:17;23.80;99.90
19538;DHT22;9914;51.008;4.300;2023-05-07T11:58:45;23.80;99.90
19538;DHT22;9914;51.008;4.300;2023-05-07T12:01:12;23.90;99.90
19538;DHT22;9914;51.008;4.300;2023-05-07T12:03:43;23.80;99.90
19538;DHT22;9914;51.008;4.300;2023-05-07T12:06:10;23.80;99.90
19538;DHT22;9914;51.008;4.300;2023-05-07T12:08:41;23.70;99.90
19538;DHT22;9914;51.008;4.300;2023-05-07T12:11:08;23.70;99.90
19538;DHT22;9914;51.008;4.300;2023-05-07T12:13:35;23.60;99.90
19538;DHT22;9914;51.008;4.300;2023-05-07T12:16:01;23.70;99.90
19538;DHT22;9914;51.008;4.300;2023-05-07T12:18:29;23.80;99.90
19538;DHT22;9914;51.008;4.300;2023-05-07T12:20:55;23.70;99.90
19538;DHT22;9914;51.008;4.300;2023-05-07T12:23:21;23.80;99.90
19538;DHT22;9914;51.008;4.300;2023-05-07T12:25:47;23.90;99.90
19538;DHT22;9914;51.008;4.300;2023-05-07T12:28:15;24.10;99.90
19538;DHT22;9914;51.008;4.300;2023-05-07T12:30:42;24.10;99.90
19538;DHT22;9914;51.008;4.300;2023-05-07T12:33:08;24.10;99.90
19538;DHT22;9914;51.008;4.300;2023-05-07T12:35:40;24.20;99.90
19538;DHT22;9914;51.008;4.300;2023-05-07T12:38:14;24.10;99.90
19538;DHT22;9914;51.008;4.300;2023-05-07T12:41:00;24.10;99.90
19538;DHT22;9914;51.008;4.300;2023-05-07T12:43:28;24.20;99.90
19538;DHT22;9914;51.008;4.300;2023-05-07T12:45:56;24.30;99.90
19538;DHT22;9914;51.008;4.300;2023-05-07T12:48:23;24.50;99.90
19538;DHT22;9914;51.008;4.300;2023-05-07T12:50:50;24.50;99.90
19538;DHT22;9914;51.008;4.300;2023-05-07T12:53:16;24.40;99.90
19538;DHT22;9914;51.008;4.300;2023-05-07T12:55:47;24.40;99.90
19538;DHT22;9914;51.008;4.300;2023-05-07T12:58:28;24.60;99.90
19538;DHT22;9914;51.008;4.300;2023-05-07T13:00:55;24.70;99.90
19538;DHT22;9914;51.008;4.300;2023-05-07T13:03:28;24.50;99.90
19538;DHT22;9914;51.008;4.300;2023-05-07T13:05:57;24.50;99.90
19538;DHT22;9914;51.008;4.300;2023-05-07T13:08:28;24.60;99.90
19538;DHT22;9914;51.008;4.300;2023-05-07T13:10:53;24.60;99.90
19538;DHT22;9914;51.008;4.300;2023-05-07T13:13:20;24.60;99.90
19538;DHT22;9914;51.008;4.300;2023-05-07T13:15:46;24.80;99.90
19538;DHT22;9914;51.008;4.300;2023-05-07T13:18:12;25.10;99.90
19538;DHT22;9914;51.008;4.300;2023-05-07T13:20:38;25.20;99.90
19538;DHT22;9914;51.008;4.300;2023-05-07T13:23:04;25.30;99.90
19538;DHT22;9914;51.008;4.300;2023-05-07T13:25:30;25.50;99.90
19538;DHT22;9914;51.008;4.300;2023-05-07T13:27:59;25.50;99.90
19538;DHT22;9914;51.008;4.300;2023-05-07T13:30:25;25.60;99.90
19538;DHT22;9914;51.008;4.300;2023-05-07T13:32:53;25.70;99.90
19538;DHT22;9914;51.008;4.300;2023-05-07T13:35:20;25.60;99.90
19538;DHT22;9914;51.008;4.300;2023-05-07T13:37:46;25.60;99.90
19538;DHT22;9914;51.008;4.300;2023-05-07T13:40:13;25.60;99.90
19538;DHT22;9914;51.008;4.300;2023-05-07T13:42:39;25.70;99.90
19538;DHT22;9914;51.008;4.300;2023-05-07T13:45:05;25.70;99.90
19538;DHT22;9914;51.008;4.300;2023-05-07T13:47:31;25.90;99.90
19538;DHT22;9914;51.008;4.300;2023-05-07T13:49:57;25.70;99.90
19538;DHT22;9914;51.008;4.300;2023-05-07T13:52:22;25.60;99.90
19538;DHT22;9914;51.008;4.300;2023-05-07T13:54:48;25.50;99.90
19538;DHT22;9914;51.008;4.300;2023-05-07T13:57:13;25.40;99.90
19538;DHT22;9914;51.008;4.300;2023-05-07T13:59:40;25.40;99.90
19538;DHT22;9914;51.008;4.300;2023-05-07T14:02:06;25.30;99.90
19538;DHT22;9914;51.008;4.300;2023-05-07T14:04:32;25.20;99.90
19538;DHT22;9914;51.008;4.300;2023-05-07T14:06:58;25.00;99.90
19538;DHT22;9914;51.008;4.300;2023-05-07T14:09:23;24.90;99.90
19538;DHT22;9914;51.008;4.300;2023-05-07T14:11:49;24.70;99.90
19538;DHT22;9914;51.008;4.300;2023-05-07T14:14:17;24.70;99.90
19538;DHT22;9914;51.008;4.300;2023-05-07T14:16:43;24.60;99.90
19538;DHT22;9914;51.008;4.300;2023-05-07T14:19:09;24.60;99.90
19538;DHT22;9914;51.008;4.300;2023-05-07T14:21:35;24.60;99.90
19538;DHT22;9914;51.008;4.300;2023-05-07T14:24:01;24.50;99.90
19538;DHT22;9914;51.008;4.300;2023-05-07T14:26:26;24.50;99.90
19538;DHT22;9914;51.008;4.300;2023-05-07T14:28:52;24.40;99.90
19538;DHT22;9914;51.008;4.300;2023-05-07T14:31:20;24.30;99.90
19538;DHT22;9914;51.008;4.300;2023-05-07T14:33:46;24.20;99.90
19538;DHT22;9914;51.008;4.300;2023-05-07T14:36:12;24.10;99.90
19538;DHT22;9914;51.008;4.300;2023-05-07T14:38:37;24.10;99.90
19538;DHT22;9914;51.008;4.300;2023-05-07T14:41:03;23.90;99.90
19538;DHT22;9914;51.008;4.300;2023-05-07T14:43:29;23.90;99.90
19538;DHT22;9914;51.008;4.300;2023-05-07T14:45:55;24.00;99.90
19538;DHT22;9914;51.008;4.300;2023-05-07T14:48:20;24.00;99.90
19538;DHT22;9914;51.008;4.300;2023-05-07T14:50:49;24.10;99.90
19538;DHT22;9914;51.008;4.300;2023-05-07T14:53:15;24.30;99.90
19538;DHT22;9914;51.008;4.300;2023-05-07T14:55:41;24.40;99.90
19538;DHT22;9914;51.008;4.300;2023-05-07T14:58:07;24.30;99.90
19538;DHT22;9914;51.008;4.300;2023-05-07T15:00:33;24.30;99.90
19538;DHT22;9914;51.008;4.300;2023-05-07T15:03:06;24.30;99.90
19538;DHT22;9914;51.008;4.300;2023-05-07T15:05:32;24.40;99.90
19538;DHT22;9914;51.008;4.300;2023-05-07T15:07:58;24.30;99.90
19538;DHT22;9914;51.008;4.300;2023-05-07T15:10:24;24.30;99.90
19538;DHT22;9914;51.008;4.300;2023-05-07T15:12:49;24.40;99.90
19538;DHT22;9914;51.008;4.300;2023-05-07T15:15:15;24.40;99.90
19538;DHT22;9914;51.008;4.300;2023-05-07T15:17:41;24.40;99.90
19538;DHT22;9914;51.008;4.300;2023-05-07T15:20:07;24.40;99.90
19538;DHT22;9914;51.008;4.300;2023-05-07T15:22:33;24.30;99.90
19538;DHT22;9914;51.008;4.300;2023-05-07T15:24:59;24.30;99.90
19538;DHT22;9914;51.008;4.300;2023-05-07T15:27:25;24.30;99.90
19538;DHT22;9914;51.008;4.300;2023-05-07T15:29:51;24.50;99.90
19538;DHT22;9914;51.008;4.300;2023-05-07T15:32:17;24.40;99.90
19538;DHT22;9914;51.008;4.300;2023-05-07T15:34:43;24.60;99.90
19538;DHT22;9914;51.008;4.300;2023-05-07T15:37:08;24.50;99.90
19538;DHT22;9914;51.008;4.300;2023-05-07T15:39:34;24.60;99.90
19538;DHT22;9914;51.008;4.300;2023-05-07T15:42:00;24.60;99.90
19538;DHT22;9914;51.008;4.300;2023-05-07T15:44:26;24.60;99.90
19538;DHT22;9914;51.008;4.300;2023-05-07T15:46:54;24.50;99.90
19538;DHT22;9914;51.008;4.300;2023-05-07T15:49:19;24.60;99.90
19538;DHT22;9914;51.008;4.300;2023-05-07T15:51:45;24.70;99.90